Acme, Washington
Current Conditions -  °F | °C
As of 9:53 PM on Sunday 21 Dec 2014 (Local Time) from KBLI Reporting Station
Clear Clear  
Wind Chill: 10°   Ceiling: Unl
Heat Index: 10°   Visibility: 10mi
Dew Point:   Wind: 8mph
Humidity: 77%   Direction: 170°S
Pressure: 30.04"   Gusts: NA
Location:  48.72°N, 122.21°W
Report Text: KBLI 220553Z 17007KT 10SM CLR 10/06 A3004 RMK AO2 SLP181 T01000061 10106 20094 53013
Loading
Personal Weather Stations






























Interactive Weather Map New forecast layout! Learn more

10-Day Weather Forecast

Advertisements
Track Severe Weather on mobile